Time;durP1;ratioP1;P1;durP2;ratioP2;P2;SDS_P1;SDS_P2;PMS_P1;PMS_P2;Temp;Humidity;BMP_temperature;BMP_pressure;BME280_temperature;BME280_humidity;BME280_pressure;Samples;Min_cycle;Max_cycle;Signal;HPM_P1;HPM_P2
2021/08/02 00:01:22;;;;;;;12.32;6.72;;;;;;;12.91;87.26;99966.72;10328603;28;20231;-73
2021/08/02 00:06:34;;;;;;;15.07;6.50;;;;;;;12.79;87.80;99958.00;10345857;28;20669;-73
2021/08/02 00:11:40;;;;;;;11.40;6.78;;;;;;;12.73;87.66;99966.69;10346282;28;20195;-73
2021/08/02 00:16:44;;;;;;;12.98;6.32;;;;;;;12.58;87.61;99969.84;10345663;28;20179;-73
2021/08/02 00:21:49;;;;;;;19.80;6.22;;;;;;;12.47;87.44;99978.09;10345835;28;20568;-73
2021/08/02 00:26:54;;;;;;;10.32;5.45;;;;;;;12.47;87.56;99983.50;10345430;28;20195;-73
2021/08/02 00:31:57;;;;;;;9.70;5.63;;;;;;;12.50;87.35;99987.75;10346646;28;20207;-73
2021/08/02 00:37:09;;;;;;;10.60;6.05;;;;;;;12.37;87.00;99986.22;10345041;28;20195;-73
2021/08/02 00:42:55;;;;;;;9.30;5.45;;;;;;;12.17;87.11;99993.44;10327677;28;20215;-73
2021/08/02 00:48:04;;;;;;;11.20;5.40;;;;;;;12.24;87.23;99991.03;10344459;28;20211;-73
2021/08/02 00:53:12;;;;;;;11.35;5.85;;;;;;;12.32;86.96;99993.06;10376941;23;20238;-75
2021/08/02 00:58:19;;;;;;;11.05;5.60;;;;;;;12.16;87.07;100004.38;10387455;28;20242;-76
2021/08/02 01:03:22;;;;;;;9.98;5.03;;;;;;;12.16;86.91;100007.06;10395607;28;20215;-76
2021/08/02 01:08:30;;;;;;;14.88;6.75;;;;;;;11.99;87.11;100003.25;10394165;28;20191;-75
2021/08/02 01:13:39;;;;;;;12.15;5.47;;;;;;;12.02;86.66;99999.44;10395099;28;20210;-76
2021/08/02 01:18:46;;;;;;;13.27;5.28;;;;;;;11.78;86.39;100013.31;10393207;28;20225;-75
2021/08/02 01:23:52;;;;;;;12.77;5.90;;;;;;;11.82;86.72;100020.09;10394055;28;20227;-76
2021/08/02 01:29:34;;;;;;;14.57;5.55;;;;;;;11.80;86.66;100017.56;10394252;28;20655;-76
2021/08/02 01:34:41;;;;;;;10.93;5.68;;;;;;;11.87;86.57;100017.84;10392440;28;20223;-76
2021/08/02 01:39:52;;;;;;;11.63;5.90;;;;;;;11.84;86.54;100024.34;10394049;28;20218;-75
2021/08/02 01:44:55;;;;;;;12.50;6.95;;;;;;;11.65;86.64;100033.25;10392879;28;20225;-75
2021/08/02 01:50:08;;;;;;;12.13;6.85;;;;;;;11.67;86.40;100036.69;10393135;28;20191;-75
2021/08/02 01:55:18;;;;;;;11.18;6.75;;;;;;;11.75;86.48;100027.06;10391965;28;20280;-75
2021/08/02 02:00:22;;;;;;;11.75;6.90;;;;;;;11.74;86.38;100034.28;10392452;28;20233;-75
2021/08/02 02:05:38;;;;;;;14.20;7.05;;;;;;;11.63;86.30;100039.81;10392020;28;20233;-75
2021/08/02 02:10:48;;;;;;;15.52;7.97;;;;;;;11.47;86.71;100037.66;10391668;28;20199;-74
2021/08/02 02:15:54;;;;;;;12.57;7.55;;;;;;;11.55;86.08;100045.03;10391857;28;20545;-75
2021/08/02 02:21:00;;;;;;;15.45;8.02;;;;;;;11.54;86.30;100043.31;10391808;28;20314;-75
2021/08/02 02:26:05;;;;;;;16.02;7.80;;;;;;;11.39;85.69;100046.41;10391759;28;20282;-76
2021/08/02 02:31:09;;;;;;;15.18;8.07;;;;;;;11.24;85.76;100048.63;10395436;28;20191;-76
2021/08/02 02:36:13;;;;;;;15.60;7.70;;;;;;;11.34;85.55;100053.19;10393195;28;20218;-76
2021/08/02 02:41:17;;;;;;;14.88;7.53;;;;;;;11.23;85.55;100052.28;10391006;28;20277;-76
2021/08/02 02:46:25;;;;;;;13.43;7.82;;;;;;;11.23;85.31;100056.81;10390375;28;20357;-75
2021/08/02 02:51:30;;;;;;;13.32;7.88;;;;;;;11.15;85.48;100060.19;10391217;28;20206;-75
2021/08/02 02:56:38;;;;;;;14.18;7.35;;;;;;;11.22;85.20;100061.34;10390192;28;20590;-75
2021/08/02 03:01:45;;;;;;;13.00;7.05;;;;;;;11.19;85.28;100055.38;10390383;28;20229;-76
2021/08/02 03:06:56;;;;;;;16.67;9.15;;;;;;;11.17;85.21;100063.59;10390557;28;20587;-75
2021/08/02 03:12:02;;;;;;;13.45;6.93;;;;;;;11.15;85.00;100064.72;10390464;28;20570;-75
2021/08/02 03:17:07;;;;;;;12.45;7.15;;;;;;;11.04;84.81;100068.31;10389545;28;20211;-75
2021/08/02 03:22:20;;;;;;;13.80;8.00;;;;;;;10.99;84.72;100068.72;10389807;28;20226;-75
2021/08/02 03:27:29;;;;;;;13.63;8.50;;;;;;;11.03;84.84;100077.38;10390406;28;20667;-75
2021/08/02 03:32:36;;;;;;;14.70;9.18;;;;;;;11.02;84.60;100078.34;10390438;28;20257;-75
2021/08/02 03:37:42;;;;;;;11.85;7.50;;;;;;;11.02;84.67;100070.28;10390174;28;20187;-75
2021/08/02 03:42:47;;;;;;;13.77;7.85;;;;;;;11.06;84.70;100082.47;10389295;28;20229;-75
2021/08/02 03:47:50;;;;;;;12.05;7.38;;;;;;;11.00;84.58;100085.72;10388575;28;20265;-76
2021/08/02 03:52:53;;;;;;;17.05;8.02;;;;;;;10.89;84.38;100091.16;10389973;28;20221;-75
2021/08/02 03:57:57;;;;;;;13.90;6.97;;;;;;;10.77;84.53;100101.97;10389900;28;20201;-77
2021/08/02 04:03:00;;;;;;;13.98;6.75;;;;;;;10.85;84.44;100112.06;10389328;28;20328;-76
2021/08/02 04:08:04;;;;;;;14.63;6.60;;;;;;;10.90;84.21;100115.22;10389216;28;20209;-74
2021/08/02 04:13:08;;;;;;;13.07;8.20;;;;;;;10.96;84.10;100117.38;10388584;28;20219;-76
2021/08/02 04:18:11;;;;;;;11.65;6.68;;;;;;;11.00;84.08;100123.34;10387438;28;20209;-75
2021/08/02 04:23:14;;;;;;;15.07;6.18;;;;;;;11.01;83.82;100116.97;10388384;28;20594;-75
2021/08/02 04:28:19;;;;;;;12.95;6.38;;;;;;;11.01;83.75;100125.88;10387362;28;20278;-75
2021/08/02 04:33:23;;;;;;;12.05;5.93;;;;;;;10.93;83.67;100127.53;10389709;28;20217;-75
2021/08/02 04:38:26;;;;;;;12.48;5.75;;;;;;;10.87;84.04;100123.53;10395088;28;20222;-75
2021/08/02 04:43:30;;;;;;;10.52;5.32;;;;;;;10.94;83.80;100121.16;10396981;28;20209;-75
2021/08/02 04:48:33;;;;;;;10.45;5.88;;;;;;;11.01;83.82;100128.56;10395860;28;20568;-75
2021/08/02 04:53:36;;;;;;;9.70;5.60;;;;;;;11.06;83.68;100134.41;10396562;28;20698;-76
2021/08/02 04:58:40;;;;;;;10.52;5.50;;;;;;;11.20;83.63;100133.22;10395156;28;20218;-76
2021/08/02 05:03:43;;;;;;;9.93;5.53;;;;;;;11.39;83.55;100142.38;10395406;28;20225;-75
2021/08/02 05:08:46;;;;;;;14.05;6.57;;;;;;;11.40;83.69;100146.75;10410783;28;20216;-75
2021/08/02 05:13:50;;;;;;;12.93;5.80;;;;;;;11.53;83.46;100143.84;10393383;28;20589;-76
2021/08/02 05:18:53;;;;;;;11.13;6.82;;;;;;;11.98;82.93;100149.59;10393776;28;20276;-75
2021/08/02 05:23:56;;;;;;;9.70;5.47;;;;;;;12.20;82.50;100145.78;10398133;28;20245;-76
2021/08/02 05:29:00;;;;;;;7.07;4.65;;;;;;;12.39;81.67;100153.91;10398282;28;20216;-77
2021/08/02 05:34:03;;;;;;;10.65;5.40;;;;;;;12.45;80.54;100155.22;10397384;28;20214;-76
2021/08/02 05:39:06;;;;;;;8.40;4.15;;;;;;;12.53;79.26;100151.78;10395636;28;20218;-75
2021/08/02 05:44:10;;;;;;;8.05;5.10;;;;;;;12.49;79.17;100158.47;10392051;28;20222;-76
2021/08/02 05:49:13;;;;;;;9.23;5.00;;;;;;;12.70;78.64;100155.59;10392990;28;20241;-76
2021/08/02 05:54:16;;;;;;;10.60;4.95;;;;;;;12.83;77.91;100154.31;10393234;28;20222;-76
2021/08/02 05:59:20;;;;;;;7.45;4.15;;;;;;;12.93;77.46;100158.84;10392849;28;20223;-75
2021/08/02 06:04:23;;;;;;;7.07;4.20;;;;;;;13.09;76.82;100158.25;10392069;28;20225;-75
2021/08/02 06:09:26;;;;;;;8.32;3.58;;;;;;;13.21;76.44;100157.91;10392360;28;20206;-74
2021/08/02 06:14:30;;;;;;;4.63;3.38;;;;;;;13.38;75.55;100159.00;10392296;28;20203;-75
2021/08/02 06:19:33;;;;;;;4.97;3.30;;;;;;;13.53;75.14;100161.25;10391478;28;20596;-74
2021/08/02 06:24:36;;;;;;;6.90;3.67;;;;;;;13.53;74.96;100159.38;10391612;28;20361;-76
2021/08/02 06:29:41;;;;;;;5.45;3.33;;;;;;;13.61;74.14;100166.75;10407801;28;20207;-74
2021/08/02 06:34:43;;;;;;;5.20;3.15;;;;;;;13.61;74.12;100172.13;10392459;28;20210;-74
2021/08/02 06:39:46;;;;;;;7.53;3.33;;;;;;;13.73;73.38;100168.22;10392131;28;20683;-74
2021/08/02 06:44:51;;;;;;;4.07;3.22;;;;;;;13.87;73.11;100172.28;10391396;28;20211;-75
2021/08/02 06:49:54;;;;;;;4.60;3.40;;;;;;;13.88;72.38;100190.19;10389800;28;20195;-76
2021/08/02 06:54:56;;;;;;;6.10;2.90;;;;;;;13.99;72.42;100189.09;10390409;28;20222;-76
2021/08/02 07:00:00;;;;;;;5.25;3.40;;;;;;;14.08;73.05;100191.75;10389602;28;20272;-76
2021/08/02 07:05:04;;;;;;;5.15;3.50;;;;;;;14.16;72.57;100191.84;10388113;28;20273;-75
2021/08/02 07:10:09;;;;;;;6.95;3.47;;;;;;;14.09;72.14;100198.84;10389562;28;20190;-76
2021/08/02 07:15:13;;;;;;;7.72;3.47;;;;;;;14.24;72.12;100201.91;10388850;28;20260;-74
2021/08/02 07:20:16;;;;;;;6.35;3.20;;;;;;;14.31;71.82;100208.38;10388987;28;20219;-75
2021/08/02 07:25:19;;;;;;;6.85;3.30;;;;;;;14.49;72.07;100215.69;10387100;28;20215;-76
2021/08/02 07:30:23;;;;;;;3.85;2.80;;;;;;;14.74;70.66;100217.59;10388721;28;20559;-76
2021/08/02 07:35:27;;;;;;;4.18;2.80;;;;;;;14.58;70.00;100212.06;10387167;28;20222;-75
2021/08/02 07:40:30;;;;;;;5.72;3.13;;;;;;;14.80;70.23;100224.25;10387006;28;20572;-75
2021/08/02 07:45:36;;;;;;;7.90;3.40;;;;;;;15.12;69.47;100220.97;10388057;28;20237;-76
2021/08/02 07:50:39;;;;;;;5.57;3.17;;;;;;;14.76;68.33;100225.59;10388184;28;20191;-75
2021/08/02 07:55:42;;;;;;;3.92;2.67;;;;;;;14.92;69.73;100232.97;10387508;28;20230;-76
2021/08/02 08:00:46;;;;;;;5.70;3.03;;;;;;;15.12;67.81;100214.72;10387756;28;20203;-74
2021/08/02 08:05:49;;;;;;;5.20;2.88;;;;;;;15.53;67.45;100215.84;10387603;28;20225;-76
2021/08/02 08:10:52;;;;;;;6.15;2.53;;;;;;;15.43;66.30;100212.41;10387631;28;20187;-76
2021/08/02 08:15:56;;;;;;;5.63;3.42;;;;;;;15.39;67.35;100222.72;10386687;28;20214;-75
2021/08/02 08:21:00;;;;;;;7.30;2.92;;;;;;;15.60;65.69;100221.47;10387319;28;20709;-76
2021/08/02 08:26:03;;;;;;;5.03;3.17;;;;;;;15.29;66.60;100221.06;10386761;28;20206;-76
2021/08/02 08:31:08;;;;;;;7.28;3.88;;;;;;;15.97;64.04;100220.28;10386969;28;20202;-75
2021/08/02 08:36:14;;;;;;;7.55;3.70;;;;;;;15.88;64.40;100222.97;10386599;28;20625;-75
2021/08/02 08:41:19;;;;;;;3.80;2.90;;;;;;;15.58;65.59;100224.34;10387043;28;20679;-75
2021/08/02 08:46:24;;;;;;;3.50;3.17;;;;;;;15.73;66.39;100226.44;10386321;28;20214;-76
2021/08/02 08:51:28;;;;;;;4.78;3.00;;;;;;;15.93;65.38;100223.31;10394072;28;20183;-76
2021/08/02 08:56:31;;;;;;;3.33;2.88;;;;;;;16.50;63.59;100222.66;10386014;28;20222;-75
2021/08/02 09:01:35;;;;;;;5.07;2.88;;;;;;;16.25;63.15;100219.00;10386513;28;20211;-75
2021/08/02 09:06:46;;;;;;;4.93;2.90;;;;;;;16.66;60.73;100229.97;10386021;28;20207;-75
2021/08/02 09:11:49;;;;;;;6.60;3.10;;;;;;;16.52;62.04;100219.78;10385086;28;20885;-75
2021/08/02 09:16:57;;;;;;;4.88;3.22;;;;;;;16.91;61.29;100213.69;10385731;28;20767;-74
2021/08/02 09:22:00;;;;;;;5.78;3.38;;;;;;;17.92;58.23;100205.03;10390287;28;20205;-75
2021/08/02 09:27:03;;;;;;;5.28;2.90;;;;;;;17.76;57.85;100210.53;10392628;28;20512;-75
2021/08/02 09:32:10;;;;;;;6.22;3.05;;;;;;;18.69;55.47;100198.81;10392797;28;20195;-74
2021/08/02 09:37:20;;;;;;;3.03;2.60;;;;;;;19.01;54.56;100208.63;10391546;28;20199;-74
2021/08/02 09:42:25;;;;;;;3.70;2.35;;;;;;;18.66;54.34;100212.78;10392232;28;20714;-74
2021/08/02 09:47:50;;;;;;;4.47;2.30;;;;;;;17.58;55.43;100217.03;10390523;28;20269;-74
2021/08/02 09:52:53;;;;;;;5.63;2.10;;;;;;;17.55;55.27;100202.94;10391863;28;20229;-74
2021/08/02 09:57:56;;;;;;;3.45;2.08;;;;;;;18.53;53.75;100206.06;10391573;28;20198;-74
2021/08/02 10:03:16;;;;;;;4.20;2.10;;;;;;;18.80;51.33;100198.41;10390130;28;20230;-74
2021/08/02 10:08:21;;;;;;;1.80;1.70;;;;;;;18.30;52.65;100213.34;10390964;28;20183;-74
2021/08/02 10:13:27;;;;;;;1.67;1.52;;;;;;;18.79;52.10;100210.34;10391301;28;20214;-74
2021/08/02 10:18:32;;;;;;;4.13;1.70;;;;;;;17.32;53.37;100217.25;10391052;28;20190;-74
2021/08/02 10:23:35;;;;;;;3.47;1.77;;;;;;;16.94;55.58;100214.19;10390855;28;20625;-74
2021/08/02 10:28:38;;;;;;;2.33;1.60;;;;;;;17.04;55.88;100214.88;10391004;28;20273;-74
2021/08/02 10:33:42;;;;;;;1.73;1.63;;;;;;;17.52;53.84;100209.56;10390277;28;20214;-74
2021/08/02 10:38:47;;;;;;;2.38;1.92;;;;;;;17.14;53.97;100212.03;10405537;28;20211;-74
2021/08/02 10:43:50;;;;;;;1.65;1.55;;;;;;;17.63;53.51;100211.06;10390681;28;20267;-74
2021/08/02 10:48:56;;;;;;;3.55;1.80;;;;;;;18.24;51.38;100212.19;10390298;28;20274;-74
2021/08/02 10:54:01;;;;;;;4.45;1.73;;;;;;;18.58;52.58;100214.53;10389592;28;20596;-74
2021/08/02 10:59:04;;;;;;;3.42;1.90;;;;;;;19.82;50.54;100214.25;10390646;28;20198;-74
2021/08/02 11:04:13;;;;;;;1.77;1.38;;;;;;;19.18;49.12;100207.41;10389084;28;20227;-74
2021/08/02 11:09:28;;;;;;;3.13;2.00;;;;;;;19.22;49.79;100211.44;10389600;28;20205;-74
2021/08/02 11:14:31;;;;;;;1.67;1.52;;;;;;;19.85;48.36;100214.72;10389245;28;20768;-74
2021/08/02 11:19:36;;;;;;;3.67;1.70;;;;;;;19.90;48.64;100204.09;10389671;28;20218;-74
2021/08/02 11:24:51;;;;;;;3.38;1.75;;;;;;;20.68;46.04;100204.38;10388765;28;20353;-75
2021/08/02 11:29:55;;;;;;;2.30;1.98;;;;;;;20.04;47.44;100199.66;10389187;28;20182;-74
2021/08/02 11:35:01;;;;;;;2.70;1.50;;;;;;;20.81;45.46;100206.38;10388137;28;20218;-74
2021/08/02 11:40:06;;;;;;;2.72;1.50;;;;;;;20.86;45.02;100212.09;10388894;28;20197;-75
2021/08/02 11:45:10;;;;;;;2.45;1.13;;;;;;;22.85;40.18;100206.88;10388079;28;20257;-74
2021/08/02 11:50:16;;;;;;;3.13;1.40;;;;;;;22.22;40.63;100193.47;10388366;28;20199;-75
2021/08/02 11:55:19;;;;;;;2.65;1.90;;;;;;;20.89;44.49;100206.25;10388248;28;20222;-74
2021/08/02 12:00:22;;;;;;;2.47;1.42;;;;;;;21.78;42.07;100202.13;10388078;28;20217;-74
2021/08/02 12:05:28;;;;;;;1.98;1.58;;;;;;;20.65;45.08;100210.25;10387565;28;20218;-74
2021/08/02 12:10:39;;;;;;;2.30;1.45;;;;;;;19.64;46.32;100209.19;10387957;28;20693;-74
2021/08/02 12:15:50;;;;;;;4.47;1.63;;;;;;;19.83;46.36;100210.50;10390683;28;20215;-74
2021/08/02 12:20:56;;;;;;;2.15;1.30;;;;;;;19.76;46.64;100210.41;10386777;28;20226;-74
2021/08/02 12:25:58;;;;;;;4.57;1.33;;;;;;;20.25;46.34;100208.94;10387478;28;20221;-74
2021/08/02 12:31:01;;;;;;;3.70;1.50;;;;;;;20.63;46.22;100208.75;10387540;28;20241;-75
2021/08/02 12:36:06;;;;;;;3.17;1.50;;;;;;;20.03;46.60;100211.59;10387093;28;20757;-75
2021/08/02 12:41:09;;;;;;;2.72;1.45;;;;;;;18.41;45.58;100198.50;10387618;28;20683;-75
2021/08/02 12:46:12;;;;;;;2.40;1.40;;;;;;;18.22;46.64;100207.97;10387014;28;20215;-75
2021/08/02 12:51:30;;;;;;;1.73;1.30;;;;;;;18.42;45.92;100200.19;10387488;28;20195;-75
2021/08/02 12:56:33;;;;;;;3.58;1.20;;;;;;;18.54;46.26;100206.88;10378278;23;20650;-74
2021/08/02 13:01:36;;;;;;;1.67;1.45;;;;;;;19.31;44.01;100198.63;10351447;28;20207;-74
2021/08/02 13:06:40;;;;;;;2.22;1.40;;;;;;;20.68;42.65;100195.31;10350197;28;20766;-74
2021/08/02 13:11:43;;;;;;;2.38;1.80;;;;;;;21.75;39.04;100197.91;10350607;28;20563;-74
2021/08/02 13:16:46;;;;;;;1.60;1.48;;;;;;;22.85;36.83;100189.63;10332371;28;20254;-74
2021/08/02 13:21:51;;;;;;;1.38;1.25;;;;;;;22.23;38.15;100188.81;10350374;28;20219;-73
2021/08/02 13:26:57;;;;;;;1.70;1.40;;;;;;;23.43;35.94;100187.06;10350217;28;20242;-74
2021/08/02 13:32:03;;;;;;;1.25;1.15;;;;;;;23.26;36.35;100186.69;10350079;28;20596;-74
2021/08/02 13:37:09;;;;;;;2.30;1.40;;;;;;;22.68;37.99;100183.69;10349725;28;20219;-74
2021/08/02 13:42:12;;;;;;;2.53;1.40;;;;;;;21.74;38.54;100187.13;10349246;28;20262;-74
2021/08/02 13:47:15;;;;;;;2.70;1.45;;;;;;;22.80;37.00;100181.19;10348809;28;20289;-74
2021/08/02 13:52:19;;;;;;;2.47;1.33;;;;;;;23.07;35.91;100163.69;10348684;28;20191;-74
2021/08/02 13:57:22;;;;;;;1.92;1.33;;;;;;;23.43;35.60;100163.25;10348062;28;20291;-74
2021/08/02 14:02:25;;;;;;;3.10;1.40;;;;;;;23.78;35.16;100165.72;10348048;28;20495;-74
2021/08/02 14:07:29;;;;;;;2.42;1.45;;;;;;;22.80;36.03;100154.63;10346631;28;20242;-74
2021/08/02 14:12:36;;;;;;;3.83;1.75;;;;;;;23.90;34.23;100151.31;10348061;28;20215;-73
2021/08/02 14:17:48;;;;;;;2.42;1.00;;;;;;;25.08;33.34;100154.34;10347265;28;20184;-74
2021/08/02 14:22:53;;;;;;;1.42;1.25;;;;;;;25.11;32.39;100148.41;10348188;28;20235;-74
2021/08/02 14:27:56;;;;;;;3.45;1.40;;;;;;;23.95;33.16;100148.75;10347568;28;20202;-73
2021/08/02 14:32:59;;;;;;;3.63;2.00;;;;;;;23.40;35.04;100139.00;10347650;28;20795;-73
2021/08/02 14:38:04;;;;;;;2.83;1.80;;;;;;;24.55;33.78;100141.03;10347016;28;20387;-73
2021/08/02 14:43:13;;;;;;;1.85;1.40;;;;;;;24.34;33.28;100133.97;10347710;28;20223;-73
2021/08/02 14:48:16;;;;;;;3.70;1.52;;;;;;;23.72;35.16;100132.78;10347213;28;20180;-73
2021/08/02 14:53:22;;;;;;;2.83;1.42;;;;;;;24.06;33.33;100145.31;10346717;28;20273;-73
2021/08/02 14:58:25;;;;;;;2.35;1.42;;;;;;;21.77;38.12;100149.31;10346801;28;20180;-73
2021/08/02 15:03:31;;;;;;;3.30;1.50;;;;;;;23.33;34.43;100140.91;10347016;28;20223;-73
2021/08/02 15:08:38;;;;;;;3.45;1.70;;;;;;;24.41;33.10;100137.56;10330204;28;20358;-73
2021/08/02 15:13:41;;;;;;;2.33;1.52;;;;;;;23.12;35.96;100146.63;10346946;28;20219;-73
2021/08/02 15:18:52;;;;;;;2.08;1.58;;;;;;;23.00;37.09;100149.16;10346604;28;20203;-73
2021/08/02 15:23:57;;;;;;;6.13;1.50;;;;;;;24.04;34.81;100145.53;10346235;28;20215;-73
2021/08/02 15:29:02;;;;;;;2.08;1.10;;;;;;;25.04;32.31;100141.28;10345823;28;20195;-73
2021/08/02 15:34:04;;;;;;;2.08;1.60;;;;;;;24.39;34.22;100147.88;10345425;28;20623;-74
2021/08/02 15:39:11;;;;;;;2.58;1.40;;;;;;;23.58;34.56;100140.22;10345657;28;20199;-73
2021/08/02 15:44:14;;;;;;;1.95;1.40;;;;;;;24.30;33.48;100135.47;10344907;28;20282;-74
2021/08/02 15:49:18;;;;;;;1.48;1.35;;;;;;;23.40;34.51;100151.88;10327642;28;20203;-74
2021/08/02 15:54:27;;;;;;;3.15;1.45;;;;;;;21.69;37.51;100135.78;10327773;28;20231;-73
2021/08/02 15:59:32;;;;;;;2.90;1.40;;;;;;;20.70;39.19;100142.25;10345358;28;20195;-73
2021/08/02 16:04:37;;;;;;;1.92;1.63;;;;;;;20.15;41.89;100149.22;10344832;28;20289;-74
2021/08/02 16:09:46;;;;;;;3.70;1.60;;;;;;;19.90;42.41;100146.84;10344881;28;20203;-73
2021/08/02 16:14:50;;;;;;;9.45;2.03;;;;;;;20.27;42.50;100153.16;10344646;28;20617;-74
2021/08/02 16:19:53;;;;;;;2.03;1.80;;;;;;;19.73;43.29;100150.00;10344540;28;20198;-74
2021/08/02 16:24:57;;;;;;;1.80;1.60;;;;;;;19.12;44.09;100155.59;10344154;28;20219;-73
2021/08/02 16:30:00;;;;;;;1.80;1.63;;;;;;;19.34;43.50;100151.97;10346011;28;20191;-73
2021/08/02 16:35:04;;;;;;;2.67;1.42;;;;;;;19.68;42.99;100158.72;10351711;28;20210;-73
2021/08/02 16:40:10;;;;;;;2.28;1.60;;;;;;;19.80;42.90;100154.50;10351441;28;20202;-73
2021/08/02 16:45:15;;;;;;;1.83;1.70;;;;;;;19.80;43.41;100153.63;10350302;28;20672;-73
2021/08/02 16:50:18;;;;;;;2.38;1.67;;;;;;;19.43;44.21;100161.72;10350939;28;20196;-73
2021/08/02 16:55:22;;;;;;;3.38;1.50;;;;;;;19.55;44.31;100159.34;10350458;28;20222;-74
2021/08/02 17:00:25;;;;;;;3.10;1.60;;;;;;;19.44;44.70;100157.97;10350477;28;20222;-74
2021/08/02 17:05:28;;;;;;;3.53;1.73;;;;;;;19.18;45.10;100157.56;10350170;28;20251;-74
2021/08/02 17:10:32;;;;;;;3.42;1.70;;;;;;;19.46;45.01;100160.50;10332369;28;20200;-74
2021/08/02 17:15:35;;;;;;;2.53;1.55;;;;;;;19.09;46.56;100153.22;10350078;28;20223;-74
2021/08/02 17:20:37;;;;;;;3.05;1.70;;;;;;;19.14;45.60;100157.13;10350407;28;20561;-74
2021/08/02 17:25:43;;;;;;;2.70;1.70;;;;;;;19.15;46.29;100157.94;10349023;28;20230;-74
2021/08/02 17:30:46;;;;;;;3.85;1.55;;;;;;;19.02;47.18;100155.84;10350004;28;20207;-75
2021/08/02 17:35:50;;;;;;;4.03;1.60;;;;;;;18.92;46.99;100161.56;10348254;28;20279;-73
2021/08/02 17:40:54;;;;;;;2.85;1.65;;;;;;;18.82;47.43;100158.25;10348525;28;20274;-73
2021/08/02 17:45:57;;;;;;;6.55;1.75;;;;;;;18.93;46.89;100160.53;10348701;28;20215;-74
2021/08/02 17:51:01;;;;;;;3.55;1.60;;;;;;;18.96;46.62;100162.88;10349343;28;20200;-74
2021/08/02 17:56:05;;;;;;;2.35;1.38;;;;;;;18.70;46.99;100165.97;10348854;28;20566;-73
2021/08/02 18:01:10;;;;;;;1.85;1.67;;;;;;;18.61;47.27;100168.94;10349217;28;20199;-73
2021/08/02 18:06:14;;;;;;;3.47;1.50;;;;;;;18.47;47.53;100166.00;10348645;28;20226;-74
2021/08/02 18:11:20;;;;;;;3.20;1.98;;;;;;;18.55;48.15;100167.81;10348732;28;20665;-74
2021/08/02 18:16:22;;;;;;;2.80;1.63;;;;;;;18.66;48.35;100170.09;10349218;28;20277;-74
2021/08/02 18:21:26;;;;;;;4.72;1.80;;;;;;;18.52;48.59;100162.72;10348288;28;20578;-75
2021/08/02 18:26:30;;;;;;;3.47;1.90;;;;;;;18.28;50.05;100166.47;10329980;28;20227;-75
2021/08/02 18:31:33;;;;;;;3.15;1.55;;;;;;;18.26;50.32;100171.22;10330479;28;20219;-75
2021/08/02 18:36:37;;;;;;;1.92;1.48;;;;;;;18.27;49.78;100173.78;10347588;28;20229;-75
2021/08/02 18:41:42;;;;;;;1.77;1.55;;;;;;;18.20;49.58;100175.50;10347616;28;20195;-75
2021/08/02 18:46:45;;;;;;;5.05;2.05;;;;;;;18.08;50.15;100177.78;10347028;28;20223;-75
2021/08/02 18:51:48;;;;;;;3.20;1.90;;;;;;;18.00;50.33;100179.72;10347333;28;20192;-75
2021/08/02 18:56:52;;;;;;;3.90;1.77;;;;;;;17.85;50.78;100187.72;10379154;23;20608;-75
2021/08/02 19:01:55;;;;;;;1.83;1.50;;;;;;;17.79;50.53;100194.72;10350551;28;20702;-75
2021/08/02 19:06:58;;;;;;;3.92;1.95;;;;;;;17.59;50.75;100201.59;10366093;28;20234;-76
2021/08/02 19:12:09;;;;;;;2.35;1.67;;;;;;;17.43;51.81;100208.75;10348647;28;20582;-76
2021/08/02 19:17:16;;;;;;;2.33;2.10;;;;;;;17.30;52.66;100213.00;10348348;28;20277;-75
2021/08/02 19:22:23;;;;;;;2.33;1.85;;;;;;;17.23;53.78;100224.56;10349748;28;20198;-74
2021/08/02 19:27:28;;;;;;;3.70;2.25;;;;;;;16.49;55.56;100226.38;10347629;28;20234;-75
2021/08/02 19:32:32;;;;;;;3.58;1.90;;;;;;;16.74;56.20;100235.41;10348222;28;20199;-75
2021/08/02 19:37:37;;;;;;;4.47;2.03;;;;;;;16.65;56.12;100233.72;10347622;28;20218;-75
2021/08/02 19:42:46;;;;;;;3.10;2.30;;;;;;;16.55;56.36;100247.41;10349092;28;20195;-74
2021/08/02 19:48:06;;;;;;;4.32;2.40;;;;;;;16.49;56.84;100253.50;10349997;28;20199;-74
2021/08/02 19:53:15;;;;;;;4.97;2.55;;;;;;;16.88;55.59;100257.44;10350263;28;20219;-75
2021/08/02 19:58:21;;;;;;;4.28;2.40;;;;;;;16.97;55.57;100264.56;10348621;28;20214;-75
2021/08/02 20:03:25;;;;;;;3.50;2.35;;;;;;;16.51;56.44;100272.28;10349299;28;20227;-75
2021/08/02 20:08:29;;;;;;;2.75;1.85;;;;;;;16.09;58.21;100279.41;10348361;28;20203;-75
2021/08/02 20:13:33;;;;;;;2.63;2.17;;;;;;;15.97;63.38;100288.00;10349264;28;20229;-75
2021/08/02 20:18:37;;;;;;;3.13;1.80;;;;;;;15.56;66.93;100295.91;10347778;28;20242;-75
2021/08/02 20:23:44;;;;;;;2.60;1.80;;;;;;;15.30;71.65;100306.66;10348926;28;20219;-75
2021/08/02 20:28:56;;;;;;;2.80;1.77;;;;;;;15.20;74.92;100301.34;10349102;28;20184;-75
2021/08/02 20:34:00;;;;;;;3.78;1.92;;;;;;;14.82;76.67;100314.19;10349004;28;20213;-74
2021/08/02 20:39:08;;;;;;;3.83;2.05;;;;;;;14.81;77.96;100299.81;10348765;28;20195;-76
2021/08/02 20:44:13;;;;;;;3.10;2.08;;;;;;;14.80;76.51;100306.22;10348181;28;20219;-75
2021/08/02 20:49:20;;;;;;;2.45;1.98;;;;;;;14.71;76.09;100319.81;10348064;28;20207;-75
2021/08/02 20:54:23;;;;;;;2.40;1.92;;;;;;;14.55;77.73;100324.03;10347584;28;20223;-75
2021/08/02 20:59:28;;;;;;;2.78;2.17;;;;;;;14.72;78.64;100316.94;10348872;28;20209;-75
2021/08/02 21:04:43;;;;;;;3.00;2.17;;;;;;;14.90;79.21;100310.72;10347757;28;20227;-75
2021/08/02 21:09:57;;;;;;;2.00;1.70;;;;;;;14.94;78.58;100322.91;10348044;28;20195;-76
2021/08/02 21:15:02;;;;;;;2.90;1.67;;;;;;;14.86;79.67;100320.97;10348609;28;20207;-76
2021/08/02 21:20:07;;;;;;;2.70;1.80;;;;;;;14.67;79.05;100318.41;10354799;28;20592;-75
2021/08/02 21:25:19;;;;;;;2.25;1.80;;;;;;;14.66;80.29;100324.81;10354087;28;20222;-76
2021/08/02 21:30:23;;;;;;;2.60;1.90;;;;;;;14.43;79.65;100324.41;10354303;28;20210;-75
2021/08/02 21:35:26;;;;;;;2.35;2.10;;;;;;;14.30;81.70;100322.00;10353996;28;20223;-75
2021/08/02 21:40:29;;;;;;;6.90;2.42;;;;;;;14.02;82.11;100324.69;10352555;28;20213;-76
2021/08/02 21:45:33;;;;;;;3.08;2.15;;;;;;;13.81;82.06;100330.31;10353359;28;20227;-75
2021/08/02 21:50:36;;;;;;;5.25;2.38;;;;;;;13.75;82.59;100335.44;10353066;28;20204;-75
2021/08/02 21:55:42;;;;;;;5.57;3.05;;;;;;;13.73;83.15;100332.88;10353572;28;20219;-75
2021/08/02 22:00:47;;;;;;;6.68;2.38;;;;;;;13.69;82.97;100335.03;10352848;28;20207;-75
2021/08/02 22:05:50;;;;;;;2.70;2.00;;;;;;;13.55;83.25;100340.03;10352625;28;20225;-75
2021/08/02 22:10:53;;;;;;;2.42;2.20;;;;;;;13.46;83.98;100345.28;10353429;28;20198;-75
2021/08/02 22:15:57;;;;;;;3.40;2.40;;;;;;;13.66;84.48;100347.97;10351370;28;20206;-75
2021/08/02 22:21:00;;;;;;;3.50;2.47;;;;;;;13.42;83.26;100343.88;10351816;28;20203;-75
2021/08/02 22:26:03;;;;;;;5.10;2.85;;;;;;;13.31;83.91;100343.16;10350192;28;20255;-75
2021/08/02 22:31:07;;;;;;;3.55;3.00;;;;;;;13.53;84.53;100328.53;10350865;28;20679;-75
2021/08/02 22:36:10;;;;;;;4.97;3.03;;;;;;;13.51;83.62;100323.28;10350924;28;20212;-74
2021/08/02 22:41:13;;;;;;;6.70;2.92;;;;;;;13.51;83.82;100333.22;10349691;28;20203;-75
2021/08/02 22:46:18;;;;;;;4.13;2.47;;;;;;;13.45;83.56;100326.56;10350889;28;20786;-74
2021/08/02 22:51:23;;;;;;;4.45;3.17;;;;;;;13.34;83.58;100319.44;10350997;28;20202;-74
2021/08/02 22:56:27;;;;;;;6.40;2.67;;;;;;;13.35;83.46;100321.13;10349823;28;20610;-74
2021/08/02 23:01:33;;;;;;;3.17;2.88;;;;;;;13.42;84.01;100327.69;10352284;28;20199;-74
2021/08/02 23:06:41;;;;;;;4.70;3.10;;;;;;;13.65;84.76;100322.81;10352013;28;20695;-74
2021/08/02 23:11:44;;;;;;;3.53;3.00;;;;;;;13.64;84.18;100331.06;10350714;28;20255;-74
2021/08/02 23:16:50;;;;;;;4.80;2.97;;;;;;;13.34;84.15;100322.13;10348831;28;20241;-74
2021/08/02 23:21:54;;;;;;;5.07;3.25;;;;;;;13.47;84.43;100328.13;10348075;28;20203;-73